Date,TemperatureHighF,TemperatureAvgF,TemperatureLowF,DewpointHighF,DewpointAvgF,DewpointLowF,HumidityHigh,HumidityAvg,HumidityLow,PressureMaxIn,PressureMinIn,WindSpeedMaxMPH,WindSpeedAvgMPH,GustSpeedMaxMPH,PrecipitationSumIn
2013-1-1,16,7,-1,6,1,-6,85,74,60,30.31,30.16,4,1,9,0.00
2013-1-2,30,21,9,25,14,3,86,76,65,30.16,30.01,9,4,14,0.00
2013-1-3,30,21,12,26,15,7,85,78,69,30.36,30.14,10,4,17,0.00
2013-1-4,39,27,13,24,18,9,85,72,53,30.31,30.17,10,4,20,0.00
2013-1-5,40,32,25,32,26,20,84,78,69,30.17,29.93,14,5,22,0.01
2013-1-6,30,22,15,21,15,9,84,74,60,30.29,30.06,13,5,22,0.01
2013-1-7,48,35,25,27,23,18,76,62,42,30.21,29.99,12,5,24,0.00
2013-1-8,49,39,32,34,29,25,77,68,52,30.06,29.86,9,4,21,0.00
2013-1-9,46,37,28,34,30,25,88,76,62,30.42,30.06,9,2,16,0.00
2013-1-10,44,36,31,36,30,25,93,80,52,30.40,29.69,12,5,21,0.17
2013-1-11,55,48,38,48,43,36,93,85,69,29.73,29.49,12,6,24,0.05
2013-1-12,55,28,18,45,19,10,83,69,57,30.09,29.54,14,7,27,0.01
2013-1-13,19,14,9,10,6,3,76,70,61,30.31,30.00,11,6,18,0.00
2013-1-14,30,17,6,13,8,2,84,68,40,30.47,30.31,6,1,10,0.00
2013-1-15,34,24,14,16,11,9,81,60,37,30.39,30.08,6,2,12,0.00
2013-1-16,47,33,20,34,22,10,85,66,58,30.18,29.88,9,5,21,0.00
2013-1-17,36,25,16,26,17,11,85,71,47,30.45,30.17,7,2,14,0.00
2013-1-18,57,42,18,33,28,14,86,61,39,30.36,29.89,17,7,30,0.00
2013-1-19,53,41,21,34,30,9,73,64,42,30.25,29.81,15,8,32,0.00
2013-1-20,20,13,8,10,6,2,81,72,61,30.40,30.24,8,4,16,0.00
2013-1-21,8,3,-2,2,-5,-12,76,68,60,30.42,30.32,12,6,25,0.00
2013-1-22,16,7,-1,4,-2,-7,76,65,51,30.44,30.30,6,2,11,0.00
2013-1-23,29,18,7,18,8,-3,76,64,55,30.50,30.18,12,5,20,0.00
2013-1-24,21,11,3,7,-2,-7,66,55,41,30.60,30.22,10,5,17,0.00
2013-1-25,38,25,13,23,13,3,77,61,51,30.29,30.08,12,5,22,0.00
2013-1-26,34,20,6,16,8,1,78,60,39,30.37,30.17,11,4,16,0.00
2013-1-27,42,33,28,40,28,16,93,82,58,30.18,29.73,10,6,16,0.01
2013-1-28,55,39,34,50,37,32,94,93,93,29.91,29.59,10,3,17,0.04
2013-1-29,62,43,33,58,40,30,94,89,77,29.64,29.51,8,4,16,0.11
2013-1-30,33,24,16,31,20,10,92,86,75,29.82,29.41,15,7,26,0.04
2013-1-31,19,5,0,13,-2,-7,78,73,69,30.35,29.82,16,10,27,0.00
2013-2-1,24,5,-8,16,-3,-13,78,69,58,30.39,30.03,8,4,16,0.00
2013-2-2,26,21,17,20,13,8,87,73,61,30.17,29.96,8,4,17,0.00
2013-2-3,33,25,17,26,16,11,88,70,49,30.17,29.81,13,5,23,0.00
2013-2-4,31,24,15,23,18,11,86,78,68,29.99,29.75,8,2,16,0.00
2013-2-5,42,30,21,33,24,16,89,80,70,30.09,29.80,10,3,16,0.00
2013-2-6,45,33,19,35,28,17,91,80,63,30.13,29.92,10,4,16,0.00
2013-2-7,40,35,30,37,32,25,92,88,76,30.16,29.88,8,3,17,0.64
2013-2-8,31,28,26,25,24,22,86,83,77,30.35,30.16,10,3,16,0.01
2013-2-9,35,31,28,30,27,24,86,84,79,30.27,29.88,11,7,18,0.00
2013-2-10,54,39,33,48,34,24,93,83,56,29.88,29.28,18,10,34,0.11
2013-2-11,33,31,28,24,23,21,79,71,66,30.12,29.58,22,12,40,0.01
2013-2-12,45,33,24,26,23,19,83,67,44,30.13,29.86,7,3,14,0.00
2013-2-13,50,38,26,32,27,22,85,66,45,29.86,29.67,8,3,13,0.00
2013-2-14,43,36,26,31,28,16,82,73,61,30.14,29.68,11,6,20,0.00
2013-2-15,29,23,18,16,13,8,79,67,44,30.30,30.14,10,4,17,0.00
2013-2-16,35,22,12,19,14,8,83,70,45,30.28,30.10,6,2,13,0.00
2013-2-17,44,30,18,26,20,14,84,68,46,30.10,29.69,14,8,24,0.00
2013-2-18,43,34,17,34,25,9,82,70,63,29.89,29.54,17,7,31,0.00
2013-2-19,23,16,8,10,5,0,75,62,47,30.35,29.89,18,11,31,0.00
2013-2-20,24,14,0,11,2,-6,76,61,44,30.43,30.29,6,1,13,0.00
2013-2-21,26,22,17,22,16,10,90,79,67,30.32,29.81,14,4,24,0.00
2013-2-22,30,25,23,23,20,15,90,81,69,29.98,29.74,9,4,17,0.00
2013-2-23,34,25,16,20,16,12,84,70,54,29.97,29.91,6,3,14,0.01
2013-2-24,42,28,9,29,20,5,89,73,48,30.06,29.95,4,1,7,0.11
2013-2-25,41,33,26,32,27,22,87,78,64,30.08,29.86,6,1,11,0.01
2013-2-26,34,32,30,29,28,27,92,87,77,29.86,29.62,8,4,20,0.00
2013-2-27,31,29,27,28,26,23,92,90,87,29.93,29.73,7,4,16,0.01
2013-2-28,32,27,21,25,22,17,89,82,74,30.14,29.93,6,3,18,0.05
2013-3-1,31,27,23,24,21,17,88,79,68,30.29,30.12,6,2,11,0.04
2013-3-2,29,19,11,19,12,-100,86,76,62,30.31,30.18,6,2,10,0.02
2013-3-3,33,27,17,23,19,12,85,73,61,30.18,29.94,11,6,17,0.00
2013-3-4,38,32,26,30,27,23,89,82,70,29.94,29.78,14,8,24,0.01
2013-3-5,32,29,27,27,24,21,91,82,68,30.24,29.92,12,6,19,0.01
2013-3-6,30,25,14,23,19,11,88,78,68,30.40,30.24,9,3,17,0.01
2013-3-7,33,23,11,25,18,8,89,82,69,30.37,30.27,8,4,14,0.00
2013-3-8,43,34,25,34,28,21,88,80,68,30.29,30.06,12,8,19,0.00
2013-3-9,43,38,36,41,36,32,93,91,83,30.06,29.61,14,8,22,1.11
2013-3-10,42,37,33,40,35,31,93,93,93,29.72,29.60,4,2,11,1.20
2013-3-11,33,29,25,31,26,20,93,87,76,29.93,29.66,13,6,22,0.07
2013-3-12,34,28,23,28,22,18,87,79,66,30.21,29.92,15,8,26,0.00
2013-3-13,36,26,18,23,18,13,86,72,48,30.43,30.21,9,4,18,0.00
2013-3-14,54,38,27,39,29,20,88,70,51,30.31,30.05,9,3,15,0.00
2013-3-15,55,40,27,44,34,24,92,82,66,30.06,29.70,9,2,15,0.00
2013-3-16,37,34,28,34,28,21,90,78,65,30.17,29.76,12,4,18,0.00
2013-3-17,38,31,23,27,23,17,81,72,61,30.17,29.83,13,6,23,0.00
2013-3-18,34,30,22,31,24,14,91,78,63,29.97,29.71,18,8,31,0.09
2013-3-19,39,26,16,22,14,9,77,62,37,30.20,29.95,11,6,18,0.01
2013-3-20,27,21,15,20,10,5,79,61,45,30.31,30.12,14,7,25,0.01
2013-3-21,36,22,9,17,11,5,83,63,41,30.13,29.96,5,1,9,0.00
2013-3-22,41,29,17,24,18,13,84,65,42,30.06,29.97,6,1,16,0.00
2013-3-23,41,32,25,29,24,20,90,71,46,30.10,29.96,5,1,13,0.00
2013-3-24,30,29,28,27,26,25,91,90,87,30.03,29.85,9,4,17,0.03
2013-3-25,36,30,26,27,24,20,91,78,62,30.23,29.93,11,5,21,0.10
2013-3-26,39,29,20,27,21,16,85,73,51,30.33,30.23,8,4,16,0.01
2013-3-27,47,34,20,29,24,17,91,68,44,30.35,30.25,5,1,14,0.00
2013-3-28,55,40,26,36,30,22,89,68,44,30.32,30.20,10,3,17,0.00
2013-3-29,61,45,27,39,32,24,92,64,36,30.27,30.13,9,4,15,0.00
2013-3-30,52,47,38,49,41,-100,93,82,56,30.14,29.85,9,4,18,0.23
2013-3-31,53,42,34,41,34,22,93,75,36,30.07,29.86,14,4,27,0.01
2013-4-1,40,31,23,23,20,17,79,63,42,30.28,30.07,8,4,17,0.01
2013-4-2,47,32,18,25,20,14,89,64,36,30.34,30.27,9,2,19,0.00
2013-4-3,52,36,22,24,19,14,88,54,24,30.41,30.25,11,2,16,0.00
2013-4-4,65,44,26,40,28,20,82,55,29,30.25,30.01,8,3,15,0.00
2013-4-5,60,47,30,33,30,20,86,56,25,30.20,29.88,10,4,18,0.00
2013-4-6,67,57,44,49,41,32,85,54,45,29.88,29.55,15,8,28,0.00
2013-4-7,69,51,33,45,40,30,91,69,41,29.95,29.67,9,3,18,0.00
2013-4-8,73,62,49,58,52,43,93,72,52,29.80,29.61,8,3,15,0.29
2013-4-9,75,58,46,63,54,43,93,85,63,29.84,29.70,9,4,17,0.24
2013-4-10,46,41,40,43,39,37,93,91,88,29.97,29.69,22,3,31,1.91
2013-4-11,44,40,36,40,36,30,93,86,77,29.72,29.58,11,4,20,0.15
2013-4-12,40,37,35,34,31,26,90,78,67,29.94,29.60,13,8,25,0.01
2013-4-13,52,42,31,37,29,23,75,62,48,29.99,29.84,11,5,19,0.01
2013-4-14,73,56,43,54,45,37,91,71,42,29.84,29.43,15,8,30,0.44
2013-4-15,53,45,41,50,37,31,91,74,54,30.04,29.63,11,3,18,0.43
2013-4-16,51,42,30,36,32,26,89,71,51,30.22,30.02,6,2,15,0.01
2013-4-17,51,44,40,49,40,36,93,87,67,30.19,29.62,14,5,28,4.75
2013-4-18,52,41,35,50,38,30,93,88,77,29.70,29.49,18,8,28,2.25
2013-4-19,44,36,31,30,27,24,81,70,51,30.06,29.67,18,11,29,0.01
2013-4-20,49,38,27,29,25,20,85,62,34,30.29,30.06,7,2,14,0.00
2013-4-21,66,53,40,43,36,28,72,56,35,30.26,30.09,14,8,25,0.00
2013-4-22,68,57,47,49,44,40,88,63,41,30.16,29.92,10,5,20,0.13
2013-4-23,45,38,35,41,31,26,88,78,63,30.11,30.00,11,6,18,0.13
2013-4-24,54,41,28,39,27,23,86,60,30,30.16,30.04,11,5,25,0.06
2013-4-25,61,47,34,39,33,29,86,61,33,30.28,30.11,9,4,19,0.07
2013-4-26,65,58,48,49,43,35,72,58,50,30.21,30.11,15,8,30,0.00
2013-4-27,64,53,39,49,44,37,92,74,52,30.22,29.98,8,3,15,0.00
2013-4-28,75,58,39,52,46,37,92,68,41,29.99,29.76,7,3,14,0.00
2013-4-29,81,68,53,62,55,48,84,66,47,29.80,29.57,8,4,18,0.00
2013-4-30,87,77,68,61,53,47,69,44,29,29.83,29.57,14,8,29,0.00
2013-5-1,70,57,42,52,44,35,79,64,45,30.24,29.84,14,5,28,0.00
2013-5-2,42,36,33,36,33,30,92,88,75,30.37,30.23,11,7,27,0.48
2013-5-3,35,34,32,32,31,30,93,91,85,30.28,29.91,10,4,18,1.02
2013-5-4,59,48,34,54,45,32,93,90,80,30.03,29.84,6,2,12,0.82
2013-5-5,67,53,44,59,49,42,93,88,73,30.09,30.00,6,2,18,0.29
2013-5-6,76,59,46,58,49,44,92,74,36,30.09,29.99,6,2,9,0.00
2013-5-7,80,63,45,56,49,43,93,65,32,30.06,29.96,5,1,11,0.00
2013-5-8,74,62,48,59,53,45,91,75,45,30.01,29.92,7,1,12,0.04
2013-5-9,70,62,57,60,57,53,91,84,66,29.92,29.80,7,3,13,0.27
2013-5-10,66,55,50,54,48,-100,91,82,60,30.02,29.87,7,3,14,0.04
2013-5-11,58,52,43,48,33,-100,89,53,27,30.18,29.94,15,6,29,0.00
2013-5-12,61,48,33,35,27,22,78,47,23,30.25,30.12,8,2,17,0.00
2013-5-13,75,57,34,48,39,31,90,55,31,30.15,29.86,10,4,20,0.00
2013-5-14,93,78,62,64,56,48,77,51,30,29.86,29.62,12,6,26,0.00
2013-5-15,82,72,57,54,49,43,80,46,26,29.90,29.73,7,2,14,0.03
2013-5-16,82,66,59,64,37,-100,83,65,48,29.91,29.80,9,4,17,0.02
2013-5-17,80,70,62,62,56,-100,88,71,50,29.94,29.84,9,4,16,0.00
2013-5-18,83,73,60,65,62,57,91,71,49,29.95,29.79,10,4,18,0.00
2013-5-19,87,75,61,69,64,58,92,70,46,29.81,29.53,14,7,28,1.89
2013-5-20,81,70,61,64,60,57,92,71,47,29.67,29.54,14,7,24,1.91
2013-5-21,72,65,57,59,54,49,89,69,51,29.68,29.57,10,5,20,0.02
2013-5-22,64,58,54,56,52,49,87,81,71,29.85,29.64,10,5,19,0.03
2013-5-23,73,61,53,55,49,44,91,69,38,30.25,29.85,7,2,13,0.02
2013-5-24,69,59,43,51,46,40,92,64,43,30.37,30.19,11,5,19,0.01
2013-5-25,59,54,51,52,49,46,92,83,62,30.30,30.14,15,7,28,2.20
2013-5-26,62,56,51,59,52,48,91,86,82,30.16,29.91,15,7,28,0.57
2013-5-27,74,65,59,64,60,56,92,84,65,29.99,29.71,12,3,21,0.90
2013-5-28,76,68,64,70,64,59,93,87,78,29.78,29.62,12,2,25,0.65
2013-5-29,83,73,63,72,65,58,90,78,67,29.82,29.67,12,6,23,0.03
2013-5-30,76,71,64,66,62,60,87,74,64,29.70,29.54,12,7,25,0.08
2013-5-31,76,68,62,65,61,58,90,78,63,29.73,29.63,12,7,21,0.01
2013-6-1,69,65,60,63,57,51,87,76,66,29.88,29.62,11,5,20,0.00
2013-6-2,68,58,50,52,48,46,87,69,47,30.05,29.88,11,3,18,0.00
2013-6-3,72,60,44,52,48,41,93,67,44,30.09,29.95,8,3,13,0.00
2013-6-4,69,61,56,61,55,49,88,81,73,30.08,29.97,11,5,17,0.32
2013-6-5,68,63,59,62,59,55,91,85,74,30.00,29.90,6,2,11,0.14
2013-6-6,71,62,53,59,54,49,89,75,56,29.96,29.89,7,2,15,0.01
2013-6-7,71,60,53,56,53,50,91,78,52,30.00,29.91,5,1,9,0.00
2013-6-8,74,64,49,57,53,47,93,71,51,29.93,29.80,8,3,16,0.00
2013-6-9,75,66,61,63,60,55,90,79,61,29.80,29.70,12,4,20,0.12
2013-6-10,79,67,59,66,61,56,93,82,56,29.89,29.74,6,2,10,0.02
2013-6-11,87,75,62,75,67,59,92,79,63,29.90,29.71,13,3,21,0.02
2013-6-12,90,78,66,75,68,59,88,73,56,29.85,29.65,15,6,28,0.02
2013-6-13,84,73,62,64,60,56,82,65,42,30.03,29.81,13,3,26,0.01
2013-6-14,76,67,61,64,60,56,88,78,64,30.09,29.81,17,3,26,0.25